Time;durP1;ratioP1;P1;durP2;ratioP2;P2;SDS_P1;SDS_P2;PMS_P1;PMS_P2;Temp;Humidity;BMP_temperature;BMP_pressure;BME280_temperature;BME280_humidity;BME280_pressure;Samples;Min_cycle;Max_cycle;Signal;HPM_P1;HPM_P2
2022/09/28 00:00:56;;;;;;;4.60;2.33;;;9.50;99.90;;;;;;5116482;27;37235;-59
2022/09/28 00:03:26;;;;;;;5.20;3.30;;;9.50;99.90;;;;;;5117092;27;36450;-59
2022/09/28 00:06:00;;;;;;;7.05;2.78;;;9.50;99.90;;;;;;5116724;27;37508;-59
2022/09/28 00:08:27;;;;;;;7.72;3.08;;;9.50;99.90;;;;;;5118078;27;36653;-59
2022/09/28 00:10:55;;;;;;;7.82;2.60;;;9.50;99.90;;;;;;5117330;27;37310;-59
2022/09/28 00:13:23;;;;;;;7.20;3.33;;;9.50;99.90;;;;;;5117963;27;37878;-59
2022/09/28 00:15:59;;;;;;;7.88;2.90;;;9.50;99.90;;;;;;5117167;27;38110;-59
2022/09/28 00:18:28;;;;;;;5.47;3.30;;;9.50;99.90;;;;;;5117961;27;35134;-59
2022/09/28 00:21:04;;;;;;;5.53;2.72;;;9.60;99.90;;;;;;5116392;27;37419;-59
2022/09/28 00:23:32;;;;;;;5.55;3.30;;;9.50;99.90;;;;;;5117795;27;37945;-59
2022/09/28 00:26:02;;;;;;;4.72;2.78;;;9.50;99.90;;;;;;5117036;27;37937;-59
2022/09/28 00:28:30;;;;;;;8.55;3.47;;;9.60;99.90;;;;;;5116606;27;37524;-59
2022/09/28 00:30:57;;;;;;;8.30;3.00;;;9.50;99.90;;;;;;5116867;27;37940;-59
2022/09/28 00:33:25;;;;;;;8.88;3.50;;;9.60;99.90;;;;;;5116749;27;39992;-59
2022/09/28 00:35:57;;;;;;;6.50;3.38;;;9.50;99.90;;;;;;5115418;27;36429;-59
2022/09/28 00:38:27;;;;;;;7.90;3.47;;;9.60;99.90;;;;;;5117513;27;36280;-59
2022/09/28 00:40:55;;;;;;;6.72;3.40;;;9.50;99.90;;;;;;5116666;27;40497;-59
2022/09/28 00:43:23;;;;;;;6.82;3.55;;;9.60;99.90;;;;;;5117485;27;39578;-59
2022/09/28 00:45:58;;;;;;;8.98;3.92;;;9.60;99.90;;;;;;5116393;27;37349;-59
2022/09/28 00:48:29;;;;;;;7.30;4.25;;;9.60;99.90;;;;;;5116212;27;36275;-59
2022/09/28 00:51:03;;;;;;;7.75;3.90;;;9.60;99.90;;;;;;5117515;27;37475;-59
2022/09/28 00:53:34;;;;;;;8.88;4.00;;;9.60;99.90;;;;;;5117221;27;37828;-59
2022/09/28 00:56:08;;;;;;;6.07;3.90;;;9.60;99.90;;;;;;5117060;27;20072;-59
2022/09/28 00:58:41;;;;;;;9.20;4.00;;;9.60;99.90;;;;;;5116167;27;36390;-60
2022/09/28 01:01:08;;;;;;;10.25;4.35;;;9.60;99.90;;;;;;5115523;27;37556;-59
2022/09/28 01:03:37;;;;;;;7.68;4.10;;;9.60;99.90;;;;;;5116238;27;36717;-59
2022/09/28 01:06:07;;;;;;;6.80;3.65;;;9.50;99.90;;;;;;5116027;27;37396;-59
2022/09/28 01:08:36;;;;;;;6.75;3.70;;;9.60;99.90;;;;;;5116980;27;37737;-59
2022/09/28 01:11:03;;;;;;;6.45;3.80;;;9.60;99.90;;;;;;5115268;27;38898;-59
2022/09/28 01:13:32;;;;;;;9.68;4.00;;;9.50;99.90;;;;;;5117775;27;38276;-59
2022/09/28 01:16:07;;;;;;;6.65;4.05;;;9.50;99.90;;;;;;5117139;27;38719;-58
2022/09/28 01:18:41;;;;;;;6.13;3.55;;;9.50;99.90;;;;;;5117366;27;37126;-59
2022/09/28 01:21:13;;;;;;;;;;;9.40;99.90;;;;;;5117612;27;38640;-59
2022/09/28 01:24:18;;;;;;;9.00;4.10;;;9.50;99.90;;;;;;5117222;27;38698;-59
2022/09/28 01:26:56;;;;;;;8.00;3.95;;;9.40;99.90;;;;;;5115349;27;37341;-59
2022/09/28 01:29:45;;;;;;;9.35;4.03;;;9.40;99.90;;;;;;5117400;27;36735;-59
2022/09/28 01:32:20;;;;;;;7.65;3.97;;;9.40;99.90;;;;;;5112782;27;37888;-59
2022/09/28 01:34:54;;;;;;;8.82;4.38;;;9.40;99.90;;;;;;5117142;27;37692;-59
2022/09/28 01:37:25;;;;;;;8.05;4.25;;;9.30;99.90;;;;;;5117245;27;37039;-59
2022/09/28 01:39:55;;;;;;;7.88;3.58;;;9.30;99.90;;;;;;5116585;27;36898;-59
2022/09/28 01:42:30;;;;;;;11.63;4.57;;;9.30;99.90;;;;;;5116903;27;39310;-59
2022/09/28 01:45:04;;;;;;;6.47;3.97;;;9.20;99.90;;;;;;5116529;27;36458;-59
2022/09/28 01:47:36;;;;;;;8.98;4.30;;;9.20;99.90;;;;;;5115682;27;37233;-59
2022/09/28 01:50:09;;;;;;;7.20;4.47;;;9.20;99.90;;;;;;5089817;28;35245;-58
2022/09/28 01:52:44;;;;;;;7.35;4.22;;;9.20;99.90;;;;;;5090869;27;38488;-58
2022/09/28 01:55:17;;;;;;;7.03;3.88;;;9.30;99.90;;;;;;5089824;27;37765;-59
2022/09/28 01:57:50;;;;;;;9.57;4.65;;;9.30;99.90;;;;;;5090876;27;36329;-59
2022/09/28 02:00:19;;;;;;;7.28;4.13;;;9.30;99.90;;;;;;5089424;27;36567;-59
2022/09/28 02:02:52;;;;;;;10.82;4.35;;;9.30;99.90;;;;;;5090103;27;36501;-59
2022/09/28 02:05:24;;;;;;;9.65;4.55;;;9.30;99.90;;;;;;5090342;27;38232;-59
2022/09/28 02:07:58;;;;;;;10.15;4.78;;;9.30;99.90;;;;;;5090572;27;37290;-59
2022/09/28 02:10:30;;;;;;;7.05;4.90;;;9.30;99.90;;;;;;5090197;27;36977;-59
2022/09/28 02:13:02;;;;;;;8.77;4.70;;;9.30;99.90;;;;;;5093341;27;37732;-59
2022/09/28 02:15:35;;;;;;;10.70;4.72;;;9.30;99.90;;;;;;5093896;27;39662;-59
2022/09/28 02:18:02;;;;;;;7.70;4.50;;;9.30;99.90;;;;;;5093856;27;36190;-59
2022/09/28 02:20:31;;;;;;;5.80;3.30;;;9.30;99.90;;;;;;5093530;27;36585;-59
2022/09/28 02:23:01;;;;;;;6.70;3.47;;;9.30;99.90;;;;;;5094514;28;37271;-59
2022/09/28 02:25:34;;;;;;;10.15;5.40;;;9.30;99.90;;;;;;5093642;27;37846;-59
2022/09/28 02:28:05;;;;;;;8.82;5.50;;;9.30;99.90;;;;;;5094716;27;38053;-59
2022/09/28 02:30:35;;;;;;;9.40;4.82;;;9.30;99.90;;;;;;5093511;27;37493;-59
2022/09/28 02:33:08;;;;;;;12.25;5.90;;;9.30;99.90;;;;;;5094974;27;38173;-59
2022/09/28 02:35:37;;;;;;;7.53;4.80;;;9.30;99.90;;;;;;5094763;27;39138;-59
2022/09/28 02:38:04;;;;;;;7.25;4.43;;;9.30;99.90;;;;;;5094161;27;37177;-59
2022/09/28 02:40:36;;;;;;;7.78;5.45;;;9.40;99.90;;;;;;5093601;27;38276;-59
2022/09/28 02:43:13;;;;;;;8.25;5.10;;;9.30;99.90;;;;;;5092415;27;37720;-59
2022/09/28 02:46:00;;;;;;;8.15;4.97;;;9.30;99.90;;;;;;5094009;27;37969;-59
2022/09/28 02:48:44;;;;;;;10.30;5.22;;;9.30;99.90;;;;;;5103847;27;37351;-59
2022/09/28 02:51:21;;;;;;;8.23;5.53;;;9.30;99.90;;;;;;5119128;27;36582;-59
2022/09/28 02:54:27;;;;;;;8.25;5.38;;;9.30;99.90;;;;;;5117136;27;36396;-59
2022/09/28 02:57:07;;;;;;;8.90;4.88;;;9.30;99.90;;;;;;5106273;27;37688;-59
2022/09/28 02:59:52;;;;;;;10.15;5.63;;;9.20;99.90;;;;;;5119074;27;37396;-59
2022/09/28 03:02:27;;;;;;;9.57;5.60;;;9.30;99.90;;;;;;5119778;27;35320;-59
2022/09/28 03:05:10;;;;;;;9.90;5.70;;;9.30;99.90;;;;;;5119833;27;38418;-59
2022/09/28 03:07:44;;;;;;;12.98;5.75;;;9.30;99.90;;;;;;5119439;27;37345;-59
2022/09/28 03:10:16;;;;;;;10.73;5.63;;;9.20;99.90;;;;;;5119400;27;37514;-59
2022/09/28 03:12:47;;;;;;;8.00;5.15;;;9.30;99.90;;;;;;5118671;27;35157;-59
2022/09/28 03:15:21;;;;;;;8.52;5.38;;;9.20;99.90;;;;;;5119520;27;37382;-59
2022/09/28 03:17:48;;;;;;;11.15;5.57;;;9.20;99.90;;;;;;5118560;27;39112;-59
2022/09/28 03:20:16;;;;;;;8.88;5.80;;;9.20;99.90;;;;;;5119290;27;36123;-59
2022/09/28 03:22:44;;;;;;;62.42;6.45;;;9.20;99.90;;;;;;5117605;27;36321;-59
2022/09/28 03:25:11;;;;;;;33.35;3.70;;;9.20;99.90;;;;;;5118965;27;37642;-59
2022/09/28 03:27:39;;;;;;;26.35;2.63;;;9.10;99.90;;;;;;5119623;27;37767;-59
2022/09/28 03:30:07;;;;;;;92.30;5.47;;;9.00;99.90;;;;;;5118336;27;36241;-59
2022/09/28 03:32:36;;;;;;;19.55;2.50;;;9.00;99.90;;;;;;5118945;27;35202;-59
2022/09/28 03:35:04;;;;;;;20.05;2.75;;;8.90;99.90;;;;;;5118287;27;36553;-59
2022/09/28 03:37:32;;;;;;;5.00;2.08;;;8.80;99.90;;;;;;5118904;27;36703;-59
2022/09/28 03:39:59;;;;;;;5.97;2.97;;;8.80;99.90;;;;;;5118477;27;37533;-59
2022/09/28 03:42:26;;;;;;;7.43;4.30;;;8.80;99.90;;;;;;5119428;27;36368;-59
2022/09/28 03:44:54;;;;;;;6.43;4.13;;;8.80;99.90;;;;;;5117841;27;37535;-59
2022/09/28 03:47:21;;;;;;;16.90;4.43;;;8.80;99.90;;;;;;5118379;27;37685;-59
2022/09/28 03:49:50;;;;;;;24.20;4.88;;;8.80;99.90;;;;;;5119007;27;36365;-59
2022/09/28 03:52:17;;;;;;;54.33;5.65;;;8.80;99.90;;;;;;5116867;27;36625;-58
2022/09/28 03:54:44;;;;;;;46.15;3.40;;;8.80;99.90;;;;;;5119208;27;37291;-59
2022/09/28 03:57:12;;;;;;;61.92;4.68;;;8.80;99.90;;;;;;5118415;27;37711;-59
2022/09/28 03:59:39;;;;;;;31.95;3.42;;;8.80;99.90;;;;;;5118856;27;37913;-59
2022/09/28 04:02:06;;;;;;;32.28;3.97;;;8.70;99.90;;;;;;5117083;27;37921;-59
2022/09/28 04:04:34;;;;;;;14.90;3.45;;;8.70;99.90;;;;;;5118704;27;37939;-59
2022/09/28 04:07:02;;;;;;;20.05;3.70;;;8.60;99.90;;;;;;5117740;27;36336;-59
2022/09/28 04:09:29;;;;;;;64.43;6.20;;;8.60;99.90;;;;;;5117720;27;37233;-59
2022/09/28 04:11:57;;;;;;;12.85;3.20;;;8.60;99.90;;;;;;5117502;27;37261;-59
2022/09/28 04:14:24;;;;;;;16.45;3.95;;;8.60;99.90;;;;;;5118257;27;36369;-58
2022/09/28 04:16:53;;;;;;;18.23;3.45;;;8.70;99.90;;;;;;5115916;27;39117;-59
2022/09/28 04:19:21;;;;;;;28.50;4.47;;;8.60;99.90;;;;;;5116782;27;36166;-59
2022/09/28 04:21:49;;;;;;;10.13;4.00;;;8.60;99.90;;;;;;5118518;27;38181;-59
2022/09/28 04:24:19;;;;;;;22.02;4.15;;;8.60;99.90;;;;;;5118122;27;37550;-58
2022/09/28 04:26:46;;;;;;;8.20;3.38;;;8.60;99.90;;;;;;5117951;27;36765;-59
2022/09/28 04:29:15;;;;;;;12.07;3.60;;;8.60;99.90;;;;;;5116350;27;37521;-58
2022/09/28 04:31:45;;;;;;;10.50;3.67;;;8.50;99.90;;;;;;5117454;27;36384;-58
2022/09/28 04:34:16;;;;;;;10.60;3.50;;;8.60;99.90;;;;;;5117743;27;37443;-59
2022/09/28 04:36:43;;;;;;;10.23;4.05;;;8.60;99.90;;;;;;5116694;27;36546;-59
2022/09/28 04:39:11;;;;;;;13.43;4.25;;;8.60;99.90;;;;;;5115457;27;37540;-59
2022/09/28 04:41:40;;;;;;;7.72;3.90;;;8.60;99.90;;;;;;5116258;27;36877;-58
2022/09/28 04:44:07;;;;;;;8.98;3.53;;;8.60;99.90;;;;;;5118321;27;37591;-58
2022/09/28 04:46:35;;;;;;;27.85;4.65;;;8.60;99.90;;;;;;5116762;27;37645;-59
2022/09/28 04:49:03;;;;;;;15.73;4.15;;;8.60;99.90;;;;;;5118064;27;37235;-59
2022/09/28 04:51:31;;;;;;;10.13;4.03;;;8.60;99.90;;;;;;5117255;27;38716;-58
2022/09/28 04:53:58;;;;;;;6.82;4.30;;;8.60;99.90;;;;;;5117767;27;37592;-59
2022/09/28 04:56:25;;;;;;;8.10;4.43;;;8.70;99.90;;;;;;5116555;27;38084;-59
2022/09/28 04:58:54;;;;;;;8.00;4.22;;;8.70;99.90;;;;;;5116734;27;37462;-59
2022/09/28 05:01:23;;;;;;;7.57;4.13;;;8.70;99.90;;;;;;5117585;27;36750;-58
2022/09/28 05:03:50;;;;;;;11.73;4.57;;;8.70;99.90;;;;;;5117578;27;39173;-58
2022/09/28 05:06:17;;;;;;;6.88;4.53;;;8.70;99.90;;;;;;5117049;27;37857;-59
2022/09/28 05:08:46;;;;;;;9.48;4.47;;;8.70;99.90;;;;;;5117677;27;36172;-59
2022/09/28 05:11:13;;;;;;;8.45;3.70;;;8.70;99.90;;;;;;5116004;27;38558;-59
2022/09/28 05:13:43;;;;;;;9.93;4.80;;;8.60;99.90;;;;;;5116304;27;39568;-58
2022/09/28 05:16:14;;;;;;;6.60;4.47;;;8.60;99.90;;;;;;5116652;27;38923;-59
2022/09/28 05:18:42;;;;;;;8.82;4.30;;;8.70;99.90;;;;;;5116819;27;36301;-59
2022/09/28 05:21:11;;;;;;;7.43;4.47;;;8.60;99.90;;;;;;5116386;27;36747;-58
2022/09/28 05:23:39;;;;;;;7.88;4.05;;;8.60;99.90;;;;;;5117355;27;39266;-59
2022/09/28 05:26:07;;;;;;;7.25;4.53;;;8.60;99.90;;;;;;5111469;27;37901;-58
2022/09/28 05:28:34;;;;;;;6.32;4.32;;;8.70;99.90;;;;;;5114544;27;37350;-59
2022/09/28 05:31:03;;;;;;;8.82;4.72;;;8.60;99.90;;;;;;5115985;27;37544;-59
2022/09/28 05:33:32;;;;;;;8.80;5.10;;;8.60;99.90;;;;;;5116674;27;37725;-59
2022/09/28 05:36:00;;;;;;;7.93;4.40;;;8.60;99.90;;;;;;5117221;27;38670;-59
2022/09/28 05:38:28;;;;;;;7.60;4.70;;;8.70;99.90;;;;;;5116708;27;37293;-59
2022/09/28 05:40:56;;;;;;;7.05;4.53;;;8.70;99.90;;;;;;5115089;27;36452;-59
2022/09/28 05:43:23;;;;;;;6.60;4.57;;;8.70;99.90;;;;;;5115148;27;36366;-58
2022/09/28 05:45:51;;;;;;;6.88;4.72;;;8.70;99.90;;;;;;5113529;27;39363;-59
2022/09/28 05:48:18;;;;;;;6.35;4.05;;;8.70;99.90;;;;;;5115727;27;38531;-58
2022/09/28 05:50:50;;;;;;;6.65;4.47;;;8.70;99.90;;;;;;5116392;27;36620;-59
2022/09/28 05:53:18;;;;;;;9.20;4.53;;;8.70;99.90;;;;;;5116319;27;36402;-58
2022/09/28 05:55:46;;;;;;;7.93;4.75;;;8.70;99.90;;;;;;5114653;27;38968;-58
2022/09/28 05:58:13;;;;;;;7.53;4.90;;;8.70;99.90;;;;;;5116715;27;38459;-59
2022/09/28 06:00:40;;;;;;;6.78;4.68;;;8.70;99.90;;;;;;5115877;27;36694;-59
2022/09/28 06:03:11;;;;;;;7.80;5.03;;;8.70;99.90;;;;;;5116603;27;38365;-58
2022/09/28 06:05:39;;;;;;;7.88;4.90;;;8.70;99.90;;;;;;5115503;27;39276;-58
2022/09/28 06:08:10;;;;;;;7.15;4.97;;;8.70;99.90;;;;;;5113096;27;39141;-58
2022/09/28 06:10:38;;;;;;;6.60;4.25;;;8.70;99.90;;;;;;5115794;27;36394;-59
2022/09/28 06:13:06;;;;;;;7.63;5.25;;;8.60;99.90;;;;;;5115511;27;38075;-58
2022/09/28 06:15:35;;;;;;;7.32;4.97;;;8.70;99.90;;;;;;5113774;27;37887;-59
2022/09/28 06:18:05;;;;;;;10.10;5.00;;;8.70;99.90;;;;;;5116259;27;36127;-58
2022/09/28 06:20:35;;;;;;;9.00;5.53;;;8.70;99.90;;;;;;5114999;27;36667;-58
2022/09/28 06:23:02;;;;;;;7.10;4.55;;;8.70;99.90;;;;;;5115492;27;36456;-59
2022/09/28 06:25:32;;;;;;;7.07;5.00;;;8.70;99.90;;;;;;5115023;27;39611;-58
2022/09/28 06:28:01;;;;;;;8.73;4.85;;;8.70;99.90;;;;;;5115265;27;36263;-59
2022/09/28 06:30:30;;;;;;;7.18;4.60;;;8.70;99.90;;;;;;5115656;27;37467;-59
2022/09/28 06:32:59;;;;;;;9.48;5.53;;;8.70;99.90;;;;;;5114728;27;37353;-59
2022/09/28 06:35:29;;;;;;;8.43;4.63;;;8.70;99.90;;;;;;5113303;27;37588;-59
2022/09/28 06:37:56;;;;;;;8.68;5.55;;;8.70;99.90;;;;;;5115258;27;36244;-59
2022/09/28 06:40:24;;;;;;;7.55;5.13;;;8.80;99.90;;;;;;5115378;27;36624;-59
2022/09/28 06:42:56;;;;;;;8.60;5.65;;;8.80;99.90;;;;;;5116585;27;37564;-59
2022/09/28 06:45:24;;;;;;;9.40;4.90;;;8.90;99.90;;;;;;5115883;27;37829;-59
2022/09/28 06:47:57;;;;;;;8.18;5.50;;;8.90;99.90;;;;;;5116528;27;38227;-59
2022/09/28 06:50:25;;;;;;;8.00;5.53;;;8.90;99.90;;;;;;5115324;27;36538;-59
2022/09/28 06:52:53;;;;;;;8.48;5.25;;;8.90;99.90;;;;;;5116267;27;37618;-59
2022/09/28 06:55:20;;;;;;;9.60;5.97;;;8.90;99.90;;;;;;5114117;27;38592;-58
2022/09/28 06:57:47;;;;;;;10.23;6.45;;;8.90;99.90;;;;;;5113804;27;37729;-58
2022/09/28 07:00:16;;;;;;;7.97;5.10;;;9.00;99.90;;;;;;5117784;27;36390;-59
2022/09/28 07:02:44;;;;;;;8.52;5.63;;;9.00;99.90;;;;;;5117593;27;35622;-58
2022/09/28 07:05:13;;;;;;;10.60;5.70;;;9.00;99.90;;;;;;5118682;27;38501;-59
2022/09/28 07:07:43;;;;;;;9.63;5.22;;;9.10;99.90;;;;;;5118036;27;36204;-58
2022/09/28 07:10:11;;;;;;;8.38;6.40;;;9.10;99.90;;;;;;5117225;27;36456;-59
2022/09/28 07:12:39;;;;;;;8.38;6.00;;;9.20;99.90;;;;;;5118034;27;37220;-58
2022/09/28 07:15:07;;;;;;;9.23;6.18;;;9.20;99.90;;;;;;5118283;27;37899;-59
2022/09/28 07:17:36;;;;;;;12.00;6.03;;;9.30;99.90;;;;;;5118108;27;37549;-58
2022/09/28 07:20:04;;;;;;;9.32;6.05;;;9.30;99.90;;;;;;5118700;27;35348;-59
2022/09/28 07:22:31;;;;;;;9.07;5.85;;;9.30;99.90;;;;;;5118009;27;40159;-59
2022/09/28 07:24:59;;;;;;;9.25;6.05;;;9.40;99.90;;;;;;5110643;27;37402;-58
2022/09/28 07:27:26;;;;;;;8.23;5.82;;;9.40;99.90;;;;;;5108773;27;38246;-58
2022/09/28 07:29:54;;;;;;;9.02;6.13;;;9.50;99.90;;;;;;5110027;27;37234;-58
2022/09/28 07:32:21;;;;;;;10.77;6.88;;;9.50;99.90;;;;;;5110993;27;37812;-58
2022/09/28 07:34:51;;;;;;;8.35;6.07;;;9.50;99.90;;;;;;5106887;27;36686;-58
2022/09/28 07:37:18;;;;;;;10.15;6.53;;;9.50;99.90;;;;;;5107554;27;38315;-58
2022/09/28 07:42:31;;;;;;;11.20;6.93;;;9.60;99.90;;;;;;5111273;27;39242;-58
2022/09/28 07:44:59;;;;;;;8.48;6.07;;;9.70;99.90;;;;;;5107523;27;39247;-58
2022/09/28 07:47:26;;;;;;;9.45;6.30;;;9.70;99.90;;;;;;5110478;27;36033;-58
2022/09/28 07:49:56;;;;;;;10.27;7.15;;;9.70;99.90;;;;;;5111035;27;36491;-58
2022/09/28 07:52:25;;;;;;;7.65;5.47;;;9.80;99.90;;;;;;5108280;27;38215;-59
2022/09/28 07:54:52;;;;;;;8.85;6.45;;;9.90;99.90;;;;;;5110630;27;38482;-58
2022/09/28 07:57:21;;;;;;;8.57;5.90;;;9.90;99.90;;;;;;5109695;27;37502;-58
2022/09/28 07:59:49;;;;;;;9.60;6.10;;;10.00;99.90;;;;;;5110105;27;35289;-58
2022/09/28 08:02:18;;;;;;;10.35;6.68;;;10.00;99.90;;;;;;5110266;27;37749;-58
2022/09/28 08:04:46;;;;;;;10.88;6.65;;;10.10;99.90;;;;;;5109643;27;38505;-58
2022/09/28 08:07:16;;;;;;;11.13;6.50;;;10.20;99.90;;;;;;5109300;27;36830;-59
2022/09/28 08:09:43;;;;;;;9.02;5.95;;;10.20;99.90;;;;;;5106304;27;36573;-59
2022/09/28 08:12:11;;;;;;;9.48;6.13;;;10.30;99.90;;;;;;5111048;27;37205;-58
2022/09/28 08:14:40;;;;;;;8.13;5.47;;;10.40;99.90;;;;;;5109846;27;38769;-58
2022/09/28 08:17:09;;;;;;;8.38;5.78;;;10.40;99.90;;;;;;5109494;27;36569;-58
2022/09/28 08:22:23;;;;;;;9.60;5.35;;;10.50;99.90;;;;;;5108885;27;38692;-58
2022/09/28 08:24:50;;;;;;;9.52;4.90;;;10.60;99.90;;;;;;5110064;27;37437;-58
2022/09/28 08:27:17;;;;;;;8.20;5.07;;;10.70;99.90;;;;;;5111406;27;36189;-58
2022/09/28 08:29:45;;;;;;;7.28;4.40;;;10.70;99.90;;;;;;5111104;27;37363;-58
2022/09/28 08:32:13;;;;;;;7.57;3.45;;;10.80;99.90;;;;;;5110522;27;37597;-58
2022/09/28 08:34:41;;;;;;;7.07;3.08;;;10.90;99.90;;;;;;5107980;27;38953;-58
2022/09/28 08:37:11;;;;;;;5.43;2.80;;;10.90;99.90;;;;;;5111264;27;37839;-58
2022/09/28 08:39:39;;;;;;;5.85;3.50;;;11.00;99.90;;;;;;5110344;27;37314;-58
2022/09/28 08:42:32;;;;;;;6.03;3.42;;;11.10;99.90;;;;;;5109603;27;37321;-58
2022/09/28 08:45:06;;;;;;;6.60;2.95;;;11.20;99.90;;;;;;5109039;27;37584;-58
2022/09/28 08:50:30;;;;;;;7.78;2.97;;;11.40;99.90;;;;;;5110346;27;37514;-58
2022/09/28 08:53:03;;;;;;;7.53;3.08;;;11.50;99.90;;;;;;5110266;27;37706;-58
2022/09/28 08:55:35;;;;;;;5.95;3.65;;;11.60;99.90;;;;;;5106048;27;37693;-58
2022/09/28 08:58:10;;;;;;;7.87;3.50;;;11.60;99.90;;;;;;5109517;27;36106;-58
2022/09/28 09:00:42;;;;;;;5.70;3.10;;;11.70;99.90;;;;;;5109269;27;35341;-58
2022/09/28 09:03:13;;;;;;;6.22;3.15;;;11.80;99.90;;;;;;5109295;27;37505;-58
2022/09/28 09:05:51;;;;;;;6.57;3.00;;;11.90;99.90;;;;;;5110434;27;36530;-58
2022/09/28 09:08:34;;;;;;;7.88;3.50;;;12.00;99.90;;;;;;5111156;27;37036;-58
2022/09/28 09:11:12;;;;;;;6.40;3.15;;;12.00;99.90;;;;;;5111021;27;36749;-58
2022/09/28 09:14:19;;;;;;;6.38;2.42;;;12.10;99.90;;;;;;5110637;27;37720;-58
2022/09/28 09:16:56;;;;;;;2.63;1.15;;;12.20;99.90;;;;;;5104851;27;36497;-58
2022/09/28 09:19:35;;;;;;;5.28;1.85;;;12.10;99.90;;;;;;5109128;27;37538;-58
2022/09/28 09:22:14;;;;;;;6.43;2.13;;;12.20;99.90;;;;;;5109413;27;35591;-58
2022/09/28 09:24:49;;;;;;;3.78;1.35;;;12.20;99.90;;;;;;5109061;27;37542;-58
2022/09/28 09:27:36;;;;;;;4.45;1.30;;;12.10;99.90;;;;;;5110039;27;38980;-58
2022/09/28 09:30:09;;;;;;;2.63;1.20;;;12.10;99.90;;;;;;5106694;27;37392;-58
2022/09/28 09:33:03;;;;;;;2.22;1.13;;;12.10;99.90;;;;;;5108697;27;36393;-58
2022/09/28 09:35:54;;;;;;;5.60;1.73;;;12.10;99.90;;;;;;5104372;27;37431;-58
2022/09/28 09:38:38;;;;;;;3.03;1.38;;;12.20;99.90;;;;;;5109838;27;38140;-58
2022/09/28 09:41:15;;;;;;;3.58;1.63;;;12.40;99.90;;;;;;5108210;27;38787;-58
2022/09/28 09:43:59;;;;;;;3.80;1.58;;;12.50;99.90;;;;;;5109509;27;37458;-58
2022/09/28 09:46:36;;;;;;;4.80;1.40;;;12.70;99.90;;;;;;5107797;27;37636;-58
2022/09/28 09:49:10;;;;;;;4.00;1.15;;;12.90;99.90;;;;;;5110251;27;38590;-58
2022/09/28 09:51:45;;;;;;;3.35;1.00;;;13.00;99.90;;;;;;5110294;27;36101;-58
2022/09/28 09:54:20;;;;;;;1.88;0.82;;;13.20;99.90;;;;;;5107625;27;36676;-58
2022/09/28 09:56:53;;;;;;;2.83;1.00;;;13.30;99.90;;;;;;5108982;27;37441;-58
2022/09/28 09:59:26;;;;;;;4.00;0.80;;;13.40;99.90;;;;;;5109129;27;37808;-58
2022/09/28 10:01:55;;;;;;;3.40;1.00;;;13.30;99.90;;;;;;5108626;27;36125;-58
2022/09/28 10:04:26;;;;;;;2.47;0.80;;;13.20;99.90;;;;;;5108520;27;37133;-58
2022/09/28 10:06:58;;;;;;;5.72;0.70;;;13.10;99.90;;;;;;5108968;27;38204;-58
2022/09/28 10:09:30;;;;;;;5.73;1.10;;;13.00;99.90;;;;;;5106648;27;38358;-58
2022/09/28 10:11:58;;;;;;;2.42;0.70;;;12.90;99.90;;;;;;5108550;27;37123;-58
2022/09/28 10:14:27;;;;;;;3.35;0.73;;;12.80;99.90;;;;;;5108939;27;36610;-58
2022/09/28 10:16:57;;;;;;;2.25;0.70;;;12.70;99.90;;;;;;5109357;27;38497;-58
2022/09/28 10:19:31;;;;;;;3.80;0.80;;;12.70;99.90;;;;;;5108892;27;36632;-58
2022/09/28 10:22:01;;;;;;;2.65;0.90;;;12.70;99.90;;;;;;5108439;27;39752;-58
2022/09/28 10:24:32;;;;;;;2.83;0.75;;;12.70;99.90;;;;;;5107981;27;36623;-58
2022/09/28 10:27:05;;;;;;;3.50;0.70;;;12.80;99.90;;;;;;5108898;27;36233;-58
2022/09/28 10:29:42;;;;;;;2.28;0.57;;;12.90;99.90;;;;;;5107535;27;38564;-58
2022/09/28 10:32:22;;;;;;;9.90;1.83;;;13.10;99.90;;;;;;5107973;27;37125;-58
2022/09/28 10:34:52;;;;;;;5.93;0.80;;;13.40;99.90;;;;;;5110644;27;37038;-58
2022/09/28 10:37:19;;;;;;;1.67;0.70;;;13.50;99.90;;;;;;5112247;27;37906;-58
2022/09/28 10:39:52;;;;;;;2.63;0.43;;;13.70;99.90;;;;;;5111117;27;38865;-58
2022/09/28 10:42:22;;;;;;;2.35;0.65;;;13.80;99.90;;;;;;5112817;27;37458;-58
2022/09/28 10:45:00;;;;;;;0.55;0.32;;;13.90;99.90;;;;;;5111750;27;36446;-58
2022/09/28 10:47:31;;;;;;;2.60;0.40;;;14.00;99.90;;;;;;5112550;27;37478;-58
2022/09/28 10:49:59;;;;;;;1.35;0.50;;;14.10;99.90;;;;;;5110722;27;37726;-58
2022/09/28 10:52:32;;;;;;;0.52;0.40;;;14.30;99.90;;;;;;5111509;27;37598;-58
2022/09/28 10:55:00;;;;;;;3.72;0.40;;;14.40;99.90;;;;;;5112476;27;36699;-58
2022/09/28 10:57:29;;;;;;;2.25;0.50;;;14.50;99.90;;;;;;5110849;27;37339;-58
2022/09/28 10:59:58;;;;;;;2.58;0.30;;;14.60;99.90;;;;;;5110559;27;38129;-58
2022/09/28 11:02:27;;;;;;;1.83;0.55;;;14.60;99.90;;;;;;5110372;27;38012;-58
2022/09/28 11:04:58;;;;;;;1.98;0.40;;;14.50;99.90;;;;;;5112284;27;37856;-58
2022/09/28 11:07:29;;;;;;;2.03;0.50;;;14.40;99.90;;;;;;5110498;27;41521;-58
2022/09/28 11:09:57;;;;;;;1.63;0.40;;;14.20;99.90;;;;;;5111568;27;38779;-58
2022/09/28 11:12:27;;;;;;;0.65;0.38;;;14.00;99.90;;;;;;5107899;27;37553;-58
2022/09/28 11:15:01;;;;;;;2.10;0.70;;;13.90;99.90;;;;;;5110580;27;35254;-58
2022/09/28 11:17:31;;;;;;;3.05;0.63;;;13.80;99.90;;;;;;5109962;27;37638;-58
2022/09/28 11:20:00;;;;;;;0.90;0.40;;;13.60;99.90;;;;;;5110826;27;37725;-58
2022/09/28 11:22:29;;;;;;;2.60;0.77;;;13.50;99.90;;;;;;5112364;27;37773;-58
2022/09/28 11:25:23;;;;;;;2.22;0.50;;;13.50;99.90;;;;;;5110853;27;38502;-58
2022/09/28 11:27:59;;;;;;;0.50;0.40;;;13.40;99.90;;;;;;5110400;27;37136;-58
2022/09/28 11:30:32;;;;;;;1.35;0.30;;;13.30;99.90;;;;;;5111518;27;38338;-58
2022/09/28 11:33:04;;;;;;;5.25;0.93;;;13.20;99.90;;;;;;5109830;27;38413;-58
2022/09/28 11:35:44;;;;;;;2.67;0.60;;;13.20;99.90;;;;;;5110850;27;35332;-58
2022/09/28 11:38:34;;;;;;;4.00;0.52;;;13.20;99.90;;;;;;5111692;27;37628;-58
2022/09/28 11:41:15;;;;;;;1.92;0.60;;;13.10;99.90;;;;;;5107356;27;37199;-58
2022/09/28 11:44:08;;;;;;;1.98;0.60;;;13.10;99.90;;;;;;5110562;27;36222;-58
2022/09/28 11:46:47;;;;;;;3.83;0.50;;;13.10;99.90;;;;;;5109748;27;36155;-58
2022/09/28 11:49:27;;;;;;;2.92;0.63;;;13.10;99.90;;;;;;5110183;27;38038;-58
2022/09/28 11:52:01;;;;;;;2.88;0.63;;;13.10;99.90;;;;;;5110902;27;37553;-58
2022/09/28 11:54:32;;;;;;;1.23;0.57;;;13.10;99.90;;;;;;5111835;27;36196;-58
2022/09/28 11:57:04;;;;;;;2.25;0.63;;;13.30;99.90;;;;;;5104554;27;36324;-58
2022/09/28 11:59:36;;;;;;;1.63;0.40;;;13.50;99.90;;;;;;5105667;27;36285;-58
2022/09/28 12:02:15;;;;;;;2.33;0.55;;;13.60;99.90;;;;;;5109817;27;38568;-58
2022/09/28 12:04:48;;;;;;;1.45;0.40;;;13.60;99.90;;;;;;5109566;27;37192;-58
2022/09/28 12:07:19;;;;;;;1.80;0.47;;;13.60;99.90;;;;;;5109553;27;36609;-58
2022/09/28 12:09:53;;;;;;;1.10;0.32;;;13.60;99.90;;;;;;5110360;27;38465;-58
2022/09/28 12:12:25;;;;;;;1.27;0.73;;;13.50;99.90;;;;;;5109582;27;37668;-58
2022/09/28 12:14:55;;;;;;;1.58;0.40;;;13.30;99.90;;;;;;5109276;27;37242;-58
2022/09/28 12:17:32;;;;;;;1.33;0.40;;;13.30;99.90;;;;;;5107675;27;37459;-58
2022/09/28 12:20:05;;;;;;;2.38;0.40;;;13.10;99.90;;;;;;5107943;27;36501;-58
2022/09/28 12:22:37;;;;;;;3.45;0.65;;;13.00;99.90;;;;;;5109009;27;40216;-58
2022/09/28 12:25:13;;;;;;;0.63;0.20;;;12.90;99.90;;;;;;5106658;27;36202;-58
2022/09/28 12:27:44;;;;;;;2.15;0.30;;;12.80;99.90;;;;;;5108894;27;37472;-58
2022/09/28 12:30:15;;;;;;;0.32;0.17;;;12.70;99.90;;;;;;5109607;27;37747;-58
2022/09/28 12:32:48;;;;;;;0.50;0.17;;;12.60;99.90;;;;;;5109418;27;36559;-58
2022/09/28 12:35:27;;;;;;;2.13;0.38;;;12.40;99.90;;;;;;5110978;27;37309;-58
2022/09/28 12:38:10;;;;;;;1.00;0.20;;;12.40;99.90;;;;;;5110156;27;35890;-58
2022/09/28 12:40:45;;;;;;;1.83;0.20;;;12.20;99.90;;;;;;5110207;27;37567;-58
2022/09/28 12:43:34;;;;;;;2.28;0.38;;;12.20;99.90;;;;;;5111312;27;37377;-58
2022/09/28 12:46:23;;;;;;;2.08;0.20;;;12.10;99.90;;;;;;5109311;27;37370;-58
2022/09/28 12:49:29;;;;;;;0.45;0.13;;;12.00;99.90;;;;;;5109121;27;36948;-58
2022/09/28 12:52:00;;;;;;;1.30;0.20;;;12.00;99.90;;;;;;5107781;27;37448;-58
2022/09/28 12:54:52;;;;;;;2.17;0.40;;;11.90;99.90;;;;;;5108549;27;39024;-58
2022/09/28 12:57:36;;;;;;;0.95;0.30;;;11.90;99.90;;;;;;5108441;27;38783;-58
2022/09/28 13:00:08;;;;;;;0.52;0.10;;;11.90;99.90;;;;;;5108709;27;36347;-58
2022/09/28 13:03:05;;;;;;;2.83;0.47;;;11.80;99.90;;;;;;5106792;27;35736;-58
2022/09/28 13:05:59;;;;;;;1.13;0.22;;;11.80;99.90;;;;;;5110224;27;38216;-58
2022/09/28 13:08:37;;;;;;;0.60;0.20;;;11.80;99.90;;;;;;5094818;27;37420;-58
2022/09/28 13:11:14;;;;;;;0.55;0.20;;;11.80;99.90;;;;;;5104620;27;36948;-58
2022/09/28 13:13:51;;;;;;;0.50;0.08;;;11.80;99.90;;;;;;5109059;27;37740;-58
2022/09/28 13:16:23;;;;;;;0.73;0.30;;;11.90;99.90;;;;;;5107635;27;37871;-58
2022/09/28 13:18:58;;;;;;;0.73;0.20;;;12.00;99.90;;;;;;5107358;27;37103;-58
2022/09/28 13:21:38;;;;;;;0.52;0.10;;;12.00;99.90;;;;;;5102716;27;37464;-58
2022/09/28 13:24:08;;;;;;;0.65;0.25;;;12.10;99.90;;;;;;5104414;27;37599;-58